Medlin's Ranch, Nevada Weather observations

Data are for observation ending at time listed.
 Day   Time    Ave.   Ave.  Ave.  Vector   Max.   Stn.    Total    Solar   Ave.  
  of    of     Air    Rel.  Wind   Wind    Wind   Baro.  Precip.   Rad.    Soil  
Year   Day     Temp.  Hum.  Speed  Dir.    Gust   Pres.                    Temp. 
2016   (PST)    F      %     mph   deg.    mph     mb.     in.     W/m2     F   
------------------------------------------------------------------------------
 271   14:00   84.8    12    4.4   148     14.6    865     0.00     723    83.7
 271   15:00   84.5    12    4.4   126     12.7    865     0.00     580    85.0
 271   16:00   84.7    11    5.8   171     13.5    864     0.00     390    85.6
 271   17:00   83.2    12    6.3   160     12.0    864     0.00     186    85.5
 271   18:00   78.0    13    4.6   181      9.9    864     0.00      15    84.6
 271   19:00   70.9    16    4.0   220      6.8    864     0.00       0    83.1
 271   20:00   67.6    18    3.8   255      6.4    865     0.00       0    81.4
 271   21:00   63.5    20    3.2   270      6.4    865     0.00       0    79.8
 271   22:00   62.3    21    4.2   283      6.6    866     0.00       0    78.2
 271   23:00   60.1    23    4.0   262      5.5    866     0.00       0    76.8
 272    0:00   57.9    26    3.7   255      5.5    866     0.00       0    75.5
 272    1:00   57.3    27    3.9   278      6.1    866     0.00       0    74.3
 272    2:00   56.9    28    3.6   283      5.9    866     0.00       0    73.2
 272    3:00   55.8    30    3.8   261      5.6    866     0.00       0    72.2
 272    4:00   55.8    31    4.2   257      5.8    866     0.00       0    71.3
 272    5:00   52.6    34    2.6   309      4.5    866     0.00       0    70.5
 272    6:00   55.6    32    4.0   270      5.6    866     0.00       2    69.7
 272    7:00   58.5    30    2.6   268      4.8    867     0.00      47    69.0
 272    8:00   64.2    27    1.2   186      3.8    867     0.00     108    68.5
 272    9:00   66.6    31    2.9    18      7.7    868     0.00     138    68.7
 272   10:00   71.6    29    3.2    78      9.6    868     0.00     440    69.3
 272   11:00   76.7    24    3.2    59      8.7    867     0.00     772    70.5
 272   12:00   79.5    21    4.4   110     13.2    867     0.00     773    73.2
 272   13:00   81.4    20    5.0   116     14.2    866     0.00     910    76.7

Return to Medlin's Ranch, Nevada graphs page.


Western Regional Climate Center,wrcc@dri.edu